Accueil
METAR-TAF:

METAR-TAF

Aéroports :

Franklin Municipal-John Beverly Rose Airport

Franklin, Virginie, États-Unis

latitude: 36-42N, longitude: 076-54W, altitude: 12 m

Observation

Le bulletin a été fait il y a 57 minutes, à 14:55 UTC
Vent 3 kt de nord
Température 3°C
Humidité 65%
Pression 1031 hPa
Visibilité: 16.1 km
Ciel clair

METAR: KFKN 141455Z AUTO 35003KT 10SM CLR 03/M03 A3046 RMK AO2 T00251034

Heure: 10:52 (15:52 UTC)


TAF: absent

Observations et prévisions météorologiques de plus de 4000 aéroports (messages METAR et TAF).

Les stations disponibles sont représentées par des disques jaunes et rouges sur la carte.

Passer la souris dessus pour voir le nom de la station.

Cliquer dessus pour voir les observations et prévisions météorologiques.

Pour changer de carte: cliquez sur les boutons verts avec une croix noire pour zoomer, sur le bouton vert avec un tiret pour effectuer un zoom arrière, ou sur les flèches vertes pour les cartes adjacentes.


METAR-TAF: